Time;durP1;ratioP1;P1;durP2;ratioP2;P2;SDS_P1;SDS_P2;PMS_P1;PMS_P2;Temp;Humidity;BMP_temperature;BMP_pressure;BME280_temperature;BME280_humidity;BME280_pressure;Samples;Min_cycle;Max_cycle;Signal;HPM_P1;HPM_P2
2022/03/09 00:02:24;;;;;;;24.25;16.98;;;5.40;48.50;;;;;;5025423;28;20569;-88
2022/03/09 00:04:50;;;;;;;24.23;16.80;;;5.30;48.40;;;;;;5053149;28;20057;-87
2022/03/09 00:07:16;;;;;;;25.85;15.80;;;5.30;48.80;;;;;;5036385;28;20531;-88
2022/03/09 00:09:42;;;;;;;25.23;17.20;;;5.30;49.00;;;;;;5023958;28;20036;-89
2022/03/09 00:12:08;;;;;;;24.83;16.63;;;5.30;49.10;;;;;;5026907;28;20384;-89
2022/03/09 00:14:34;;;;;;;24.70;16.95;;;5.30;48.90;;;;;;5031628;28;20433;-88
2022/03/09 00:17:00;;;;;;;25.27;16.48;;;5.20;48.90;;;;;;5034557;28;20045;-88
2022/03/09 00:19:26;;;;;;;22.42;15.82;;;5.20;49.10;;;;;;5035305;28;20052;-88
2022/03/09 00:21:52;;;;;;;27.45;16.52;;;5.20;49.40;;;;;;5046952;28;20838;-87
2022/03/09 00:24:19;;;;;;;26.80;18.40;;;5.10;49.50;;;;;;5030966;28;20033;-90
2022/03/09 00:26:45;;;;;;;25.00;17.40;;;5.10;49.50;;;;;;5041224;28;20030;-88
2022/03/09 00:29:11;;;;;;;24.73;16.63;;;5.10;49.60;;;;;;5037456;28;20248;-89
2022/03/09 00:31:37;;;;;;;26.02;16.92;;;5.10;49.70;;;;;;5030257;28;20601;-88
2022/03/09 00:34:03;;;;;;;28.25;17.13;;;5.10;49.80;;;;;;5052763;28;20049;-88
2022/03/09 00:36:29;;;;;;;24.73;16.73;;;5.10;50.00;;;;;;5035800;28;20041;-87
2022/03/09 00:38:56;;;;;;;28.17;17.52;;;5.00;50.20;;;;;;5049318;28;20120;-89
2022/03/09 00:41:22;;;;;;;27.90;18.10;;;5.00;50.40;;;;;;5040466;28;20068;-90
2022/03/09 00:43:48;;;;;;;27.85;18.33;;;5.00;50.30;;;;;;5001794;28;20208;-88
2022/03/09 00:46:14;;;;;;;24.05;16.77;;;5.00;50.20;;;;;;5032904;28;20854;-88
2022/03/09 00:48:40;;;;;;;26.35;17.75;;;5.10;50.20;;;;;;5026249;28;20041;-89
2022/03/09 00:51:07;;;;;;;25.92;17.25;;;5.10;50.40;;;;;;5029131;28;20033;-89
2022/03/09 00:53:33;;;;;;;27.88;17.30;;;5.00;50.40;;;;;;5038720;28;20033;-89
2022/03/09 00:55:59;;;;;;;28.30;18.75;;;5.00;50.30;;;;;;5025158;28;20034;-88
2022/03/09 00:58:25;;;;;;;26.40;18.70;;;5.00;50.30;;;;;;5029272;28;20090;-89
2022/03/09 01:00:50;;;;;;;26.60;18.88;;;4.90;50.50;;;;;;5025056;28;20025;-89
2022/03/09 01:03:17;;;;;;;27.10;17.63;;;5.00;50.80;;;;;;5025483;28;20037;-89
2022/03/09 01:05:43;;;;;;;27.88;20.55;;;4.90;50.70;;;;;;5029539;28;20029;-90
2022/03/09 01:08:09;;;;;;;32.40;23.15;;;4.90;50.50;;;;;;5026425;28;20098;-87
2022/03/09 01:10:35;;;;;;;28.45;19.23;;;4.90;50.90;;;;;;5050230;28;20476;-90
2022/03/09 01:13:01;;;;;;;27.40;18.70;;;4.80;51.50;;;;;;5031044;28;20040;-90
2022/03/09 01:15:27;;;;;;;30.88;21.52;;;4.70;52.00;;;;;;5024153;28;20030;-89
2022/03/09 01:17:53;;;;;;;33.72;22.48;;;4.60;52.60;;;;;;5037995;28;20095;-89
2022/03/09 01:20:19;;;;;;;34.22;21.85;;;4.50;53.40;;;;;;5055464;28;20751;-88
2022/03/09 01:22:44;;;;;;;30.35;19.77;;;4.40;53.60;;;;;;5027604;28;20025;-88
2022/03/09 01:25:10;;;;;;;27.08;18.52;;;4.40;53.70;;;;;;5029746;28;20353;-89
2022/03/09 01:27:37;;;;;;;27.00;18.05;;;4.40;53.70;;;;;;5027381;28;20024;-89
2022/03/09 01:30:04;;;;;;;30.73;18.83;;;4.40;53.50;;;;;;5046155;28;20036;-88
2022/03/09 01:32:30;;;;;;;27.10;18.58;;;4.40;53.40;;;;;;5023459;28;20029;-89
2022/03/09 01:34:56;;;;;;;41.03;24.10;;;4.60;52.90;;;;;;5029723;28;20249;-90
2022/03/09 01:37:22;;;;;;;40.35;24.00;;;4.60;53.00;;;;;;5048381;28;20486;-89
2022/03/09 01:39:48;;;;;;;34.60;20.90;;;4.50;53.30;;;;;;5031146;28;20414;-89
2022/03/09 01:42:13;;;;;;;35.08;22.42;;;4.50;53.50;;;;;;5044465;28;20040;-89
2022/03/09 01:44:39;;;;;;;40.53;24.83;;;4.40;54.00;;;;;;5029997;28;20044;-89
2022/03/09 01:47:06;;;;;;;31.45;19.92;;;4.30;54.50;;;;;;5033864;28;20033;-89
2022/03/09 01:49:32;;;;;;;28.08;18.75;;;4.20;54.90;;;;;;5031449;28;20037;-88
2022/03/09 01:52:00;;;;;;;29.08;19.42;;;4.10;55.10;;;;;;5040897;28;20192;-90
2022/03/09 01:54:27;;;;;;;29.08;19.05;;;4.10;55.40;;;;;;5053628;28;20017;-88
2022/03/09 01:56:53;;;;;;;29.33;20.48;;;3.90;55.80;;;;;;5051098;28;20116;-89
2022/03/09 01:59:19;;;;;;;28.98;18.08;;;3.90;56.40;;;;;;5053062;28;20023;-89
2022/03/09 02:01:46;;;;;;;28.70;19.67;;;3.70;56.80;;;;;;5045393;28;20017;-89
2022/03/09 02:04:12;;;;;;;28.83;19.52;;;3.70;57.30;;;;;;5058211;28;20052;-88
2022/03/09 02:06:40;;;;;;;29.08;19.48;;;3.70;57.80;;;;;;5042116;28;20083;-88
2022/03/09 02:11:53;;;;;;;28.25;18.60;;;3.50;58.00;;;;;;5051369;28;20035;-88
2022/03/09 02:14:30;;;;;;;28.95;18.67;;;3.50;58.30;;;;;;5033102;28;20414;-88
2022/03/09 02:16:57;;;;;;;28.95;19.35;;;3.40;58.60;;;;;;5031913;28;20083;-88
2022/03/09 02:19:23;;;;;;;29.98;19.90;;;3.30;59.00;;;;;;5032207;28;20510;-89
2022/03/09 02:21:54;;;;;;;31.88;20.20;;;3.30;59.10;;;;;;5028123;28;20033;-89
2022/03/09 02:24:21;;;;;;;30.30;20.33;;;3.20;59.30;;;;;;5052900;28;20147;-90
2022/03/09 02:26:48;;;;;;;30.60;20.05;;;3.20;59.40;;;;;;5063009;28;20084;-89
2022/03/09 02:29:14;;;;;;;28.05;20.50;;;3.10;59.50;;;;;;5049671;28;20108;-89
2022/03/09 02:31:39;;;;;;;31.55;19.70;;;3.10;59.80;;;;;;5049752;28;20009;-89
2022/03/09 02:34:05;;;;;;;29.20;19.63;;;3.10;60.20;;;;;;5052439;28;20021;-87
2022/03/09 02:36:31;;;;;;;32.58;21.60;;;3.00;60.60;;;;;;5065557;28;20029;-89
2022/03/09 02:38:58;;;;;;;30.27;19.60;;;3.00;60.40;;;;;;5052851;28;20025;-87
2022/03/09 02:41:24;;;;;;;28.17;19.05;;;3.00;60.40;;;;;;5062762;28;20539;-88
2022/03/09 02:43:50;;;;;;;29.63;19.10;;;3.00;60.60;;;;;;5031761;28;20460;-89
2022/03/09 02:46:15;;;;;;;31.17;20.58;;;2.90;60.80;;;;;;5038366;28;20033;-87
2022/03/09 02:48:41;;;;;;;29.92;19.75;;;2.90;60.90;;;;;;5048908;28;20045;-88
2022/03/09 02:51:06;;;;;;;33.53;22.08;;;2.90;61.10;;;;;;5025694;28;20036;-88
2022/03/09 02:53:32;;;;;;;31.45;20.02;;;2.90;61.00;;;;;;5030749;28;20068;-88
2022/03/09 02:55:58;;;;;;;34.25;20.92;;;2.80;61.10;;;;;;5032279;28;20534;-88
2022/03/09 02:58:25;;;;;;;29.20;20.75;;;2.80;61.40;;;;;;5023904;28;20364;-88
2022/03/09 03:00:50;;;;;;;31.92;21.30;;;2.70;61.70;;;;;;5029971;28;20025;-88
2022/03/09 03:03:16;;;;;;;29.88;20.67;;;2.70;61.70;;;;;;5045890;28;20025;-89
2022/03/09 03:05:42;;;;;;;29.42;19.08;;;2.60;61.60;;;;;;5051080;28;20045;-89
2022/03/09 03:08:07;;;;;;;31.92;21.15;;;2.60;61.70;;;;;;5028561;28;20467;-89
2022/03/09 03:10:33;;;;;;;30.83;19.83;;;2.60;62.10;;;;;;5031964;28;20028;-88
2022/03/09 03:12:59;;;;;;;30.10;21.25;;;2.60;62.40;;;;;;5046499;28;20142;-90
2022/03/09 03:15:24;;;;;;;30.52;20.67;;;2.50;62.40;;;;;;5044746;28;20364;-89
2022/03/09 03:17:50;;;;;;;30.15;20.15;;;2.50;62.60;;;;;;5028030;28;20036;-88
2022/03/09 03:20:15;;;;;;;33.33;20.83;;;2.50;62.80;;;;;;5026483;28;20147;-88
2022/03/09 03:22:41;;;;;;;34.20;22.02;;;2.50;62.90;;;;;;5030013;28;20029;-88
2022/03/09 03:25:07;;;;;;;32.63;21.73;;;2.40;62.90;;;;;;5019530;28;20041;-88
2022/03/09 03:27:33;;;;;;;32.03;21.25;;;2.40;63.10;;;;;;5025314;28;20025;-88
2022/03/09 03:29:58;;;;;;;35.53;20.23;;;2.40;63.10;;;;;;5024787;28;20029;-87
2022/03/09 03:32:25;;;;;;;32.22;22.35;;;2.40;63.30;;;;;;5038790;28;20029;-87
2022/03/09 03:34:50;;;;;;;31.58;21.70;;;2.40;63.50;;;;;;5040494;28;20064;-87
2022/03/09 03:37:16;;;;;;;33.45;21.42;;;2.40;63.50;;;;;;5030888;28;20065;-88
2022/03/09 03:39:41;;;;;;;32.35;20.40;;;2.40;63.40;;;;;;5027450;28;20043;-88
2022/03/09 03:42:07;;;;;;;34.63;21.75;;;2.40;63.20;;;;;;5037169;28;20467;-88
2022/03/09 03:44:33;;;;;;;31.48;21.85;;;2.40;63.00;;;;;;5033103;28;20029;-88
2022/03/09 03:46:58;;;;;;;32.97;21.52;;;2.30;63.30;;;;;;5033282;28;20451;-86
2022/03/09 03:49:24;;;;;;;31.38;21.58;;;2.30;63.50;;;;;;5035877;28;20128;-88
2022/03/09 03:51:50;;;;;;;34.65;22.58;;;2.20;63.60;;;;;;5053449;28;20021;-88
2022/03/09 03:54:16;;;;;;;30.27;21.02;;;2.20;63.80;;;;;;5015881;28;20029;-89
2022/03/09 03:56:41;;;;;;;34.05;21.52;;;2.20;64.10;;;;;;5039048;28;20029;-89
2022/03/09 03:59:07;;;;;;;30.73;21.33;;;2.20;64.30;;;;;;5026796;28;20032;-87
2022/03/09 04:01:32;;;;;;;38.50;23.55;;;2.10;64.50;;;;;;5034228;28;20033;-88
2022/03/09 04:03:58;;;;;;;35.55;23.08;;;2.10;64.70;;;;;;5036211;28;20037;-89
2022/03/09 04:06:24;;;;;;;33.00;22.42;;;2.10;64.70;;;;;;5031186;28;20033;-88
2022/03/09 04:08:49;;;;;;;33.58;21.48;;;2.10;64.90;;;;;;5028011;28;20044;-87
2022/03/09 04:11:15;;;;;;;34.60;22.65;;;2.10;64.80;;;;;;5033118;28;20029;-87
2022/03/09 04:13:42;;;;;;;34.72;21.75;;;2.10;64.80;;;;;;5033996;28;21645;-88
2022/03/09 04:16:08;;;;;;;35.33;22.73;;;2.10;64.60;;;;;;5038171;28;20124;-89
2022/03/09 04:18:34;;;;;;;32.22;21.10;;;2.10;64.70;;;;;;5046099;28;20108;-89
2022/03/09 04:21:00;;;;;;;32.55;21.40;;;2.20;64.90;;;;;;5029058;28;20482;-89
2022/03/09 04:23:26;;;;;;;33.13;21.40;;;2.20;64.40;;;;;;5032288;28;20041;-88
2022/03/09 04:25:51;;;;;;;34.25;21.30;;;2.20;64.20;;;;;;5027369;28;20037;-86
2022/03/09 04:28:17;;;;;;;35.72;22.40;;;2.30;64.10;;;;;;5035998;28;20467;-89
2022/03/09 04:30:44;;;;;;;34.60;21.75;;;2.20;64.30;;;;;;5037065;28;20476;-87
2022/03/09 04:33:10;;;;;;;37.28;21.95;;;2.30;64.50;;;;;;5049908;28;20029;-88
2022/03/09 04:35:35;;;;;;;32.85;21.10;;;2.40;64.40;;;;;;5044167;28;20067;-90
2022/03/09 04:38:01;;;;;;;34.53;21.33;;;2.40;64.10;;;;;;5039539;28;20053;-88
2022/03/09 04:40:30;;;;;;;35.00;22.23;;;2.50;64.00;;;;;;5046437;28;20021;-88
2022/03/09 04:42:56;;;;;;;39.25;22.20;;;2.50;63.80;;;;;;5023189;28;20053;-88
2022/03/09 04:45:22;;;;;;;35.88;22.05;;;2.50;63.90;;;;;;5061033;28;20044;-88
2022/03/09 04:47:48;;;;;;;36.42;22.77;;;2.40;64.10;;;;;;5040044;28;20170;-87
2022/03/09 04:50:13;;;;;;;34.78;21.50;;;2.40;64.40;;;;;;5049096;28;20124;-87
2022/03/09 04:52:39;;;;;;;33.72;20.90;;;2.40;64.40;;;;;;5034643;28;20037;-87
2022/03/09 04:55:06;;;;;;;36.03;21.90;;;2.30;64.50;;;;;;5033893;28;20041;-87
2022/03/09 04:57:33;;;;;;;35.83;22.80;;;2.30;64.80;;;;;;5053304;28;20041;-86
2022/03/09 04:59:58;;;;;;;33.08;20.88;;;2.40;64.90;;;;;;5025811;28;20178;-87
2022/03/09 05:02:24;;;;;;;33.58;21.73;;;2.30;64.90;;;;;;5041238;28;20115;-88
2022/03/09 05:04:50;;;;;;;35.95;22.67;;;2.40;65.10;;;;;;5033724;28;20043;-87
2022/03/09 05:07:16;;;;;;;33.00;20.75;;;2.40;65.40;;;;;;5039923;28;20324;-87
2022/03/09 05:09:41;;;;;;;33.03;21.77;;;2.50;65.10;;;;;;5052067;28;20415;-85
2022/03/09 05:12:07;;;;;;;35.58;21.20;;;2.50;64.90;;;;;;5047496;28;20030;-86
2022/03/09 05:14:33;;;;;;;33.88;21.42;;;2.60;64.80;;;;;;5060972;28;20205;-85
2022/03/09 05:16:58;;;;;;;37.80;22.33;;;2.60;64.80;;;;;;5050317;28;20045;-86
2022/03/09 05:19:24;;;;;;;34.92;20.38;;;2.60;64.80;;;;;;5027797;28;20052;-86
2022/03/09 05:21:51;;;;;;;34.85;20.58;;;2.70;64.70;;;;;;5026043;28;20049;-86
2022/03/09 05:24:17;;;;;;;35.30;20.73;;;2.80;64.40;;;;;;5044723;28;20083;-87
2022/03/09 05:26:46;;;;;;;35.55;21.33;;;2.80;64.40;;;;;;5044377;28;20025;-88
2022/03/09 05:29:12;;;;;;;35.10;21.60;;;2.90;64.40;;;;;;5046052;28;20033;-88
2022/03/09 05:31:38;;;;;;;34.08;21.20;;;3.00;63.90;;;;;;5027111;28;20128;-87
2022/03/09 05:34:04;;;;;;;35.20;21.45;;;3.10;63.40;;;;;;5047717;28;20116;-87
2022/03/09 05:36:30;;;;;;;38.35;21.10;;;3.20;63.20;;;;;;5031301;28;20113;-88
2022/03/09 05:38:56;;;;;;;36.72;22.10;;;3.50;62.00;;;;;;5051793;28;20037;-88
2022/03/09 05:41:22;;;;;;;36.28;21.35;;;3.60;61.60;;;;;;5038949;28;20029;-87
2022/03/09 05:43:50;;;;;;;36.20;20.30;;;3.70;61.10;;;;;;5023960;28;20132;-88
2022/03/09 05:46:16;;;;;;;35.38;20.77;;;3.80;60.90;;;;;;5028774;28;20033;-89
2022/03/09 05:48:42;;;;;;;35.15;20.85;;;3.80;60.70;;;;;;5028676;28;20084;-87
2022/03/09 05:51:08;;;;;;;33.28;20.98;;;3.80;60.60;;;;;;5038988;28;20664;-86
2022/03/09 05:53:33;;;;;;;37.72;21.10;;;3.70;61.10;;;;;;5046951;28;20029;-89
2022/03/09 05:55:59;;;;;;;34.65;21.25;;;3.70;61.00;;;;;;5045482;28;20041;-89
2022/03/09 05:58:25;;;;;;;33.88;19.85;;;3.70;60.80;;;;;;5029339;28;20037;-87
2022/03/09 06:00:52;;;;;;;34.67;21.45;;;3.70;60.90;;;;;;5031768;28;20022;-86
2022/03/09 06:03:18;;;;;;;35.05;20.38;;;3.60;61.20;;;;;;5020027;28;20030;-88
2022/03/09 06:05:43;;;;;;;36.75;20.42;;;3.60;60.90;;;;;;5012375;28;20080;-87
2022/03/09 06:08:09;;;;;;;35.53;20.70;;;3.70;60.90;;;;;;5032837;28;20033;-87
2022/03/09 06:10:35;;;;;;;35.88;21.88;;;3.70;60.70;;;;;;5030467;28;20034;-88
2022/03/09 06:13:01;;;;;;;34.92;21.25;;;3.70;61.10;;;;;;5033316;28;20055;-87
2022/03/09 06:15:26;;;;;;;37.50;20.77;;;3.70;61.10;;;;;;5047756;28;20529;-87
2022/03/09 06:17:52;;;;;;;40.45;23.05;;;3.60;61.30;;;;;;5030210;28;20029;-88
2022/03/09 06:20:20;;;;;;;36.28;21.80;;;3.70;61.00;;;;;;5027953;28;20068;-87
2022/03/09 06:22:47;;;;;;;38.00;21.50;;;3.80;60.50;;;;;;5044820;28;20027;-90
2022/03/09 06:25:15;;;;;;;33.42;20.88;;;3.70;60.90;;;;;;5053186;28;20123;-87
2022/03/09 06:27:51;;;;;;;35.80;21.60;;;3.60;61.10;;;;;;5048154;28;20033;-89
2022/03/09 06:30:17;;;;;;;38.67;20.85;;;3.60;61.40;;;;;;5067371;28;20025;-88
2022/03/09 06:32:45;;;;;;;36.65;21.77;;;3.60;61.40;;;;;;5044904;28;20040;-86
2022/03/09 06:35:11;;;;;;;34.58;21.88;;;3.60;61.40;;;;;;5029544;28;20494;-86
2022/03/09 06:37:37;;;;;;;37.72;22.50;;;3.70;61.40;;;;;;5030703;28;20412;-85
2022/03/09 06:40:05;;;;;;;43.72;23.73;;;3.80;61.30;;;;;;5028639;28;20083;-85
2022/03/09 06:42:30;;;;;;;37.65;21.20;;;3.80;61.40;;;;;;5029790;28;20022;-86
2022/03/09 06:44:57;;;;;;;39.58;21.75;;;3.80;61.60;;;;;;5031823;28;20530;-86
2022/03/09 06:47:23;;;;;;;38.83;22.30;;;3.90;61.50;;;;;;5046894;28;20029;-86
2022/03/09 06:49:49;;;;;;;37.22;22.67;;;4.00;61.20;;;;;;5049731;28;20096;-87
2022/03/09 06:52:15;;;;;;;34.35;20.77;;;4.00;60.80;;;;;;5030897;28;20064;-88
2022/03/09 06:54:41;;;;;;;33.38;21.15;;;4.00;60.90;;;;;;5031309;28;20021;-87
2022/03/09 06:57:07;;;;;;;35.60;22.67;;;4.10;60.80;;;;;;5065014;28;20078;-85
2022/03/09 06:59:32;;;;;;;37.25;22.35;;;4.10;60.50;;;;;;5062229;28;20464;-91
2022/03/09 07:01:58;;;;;;;45.03;23.63;;;4.20;60.10;;;;;;5043082;28;20067;-87
2022/03/09 07:04:24;;;;;;;37.63;22.63;;;4.30;59.80;;;;;;5035797;28;20026;-85
2022/03/09 07:06:50;;;;;;;33.33;21.13;;;4.40;59.60;;;;;;5051660;28;20041;-89
2022/03/09 07:09:15;;;;;;;39.65;22.02;;;4.50;59.40;;;;;;5028795;28;20093;-86
2022/03/09 07:11:41;;;;;;;34.15;20.60;;;4.50;59.40;;;;;;5053260;28;20028;-85
2022/03/09 07:14:07;;;;;;;39.15;23.48;;;4.60;59.60;;;;;;5019826;28;20486;-86
2022/03/09 07:16:33;;;;;;;37.95;21.75;;;4.60;59.80;;;;;;5029387;28;20056;-87
2022/03/09 07:18:59;;;;;;;39.28;22.38;;;4.60;60.00;;;;;;5046109;28;20119;-87
2022/03/09 07:21:25;;;;;;;41.42;23.27;;;4.60;60.10;;;;;;5042104;28;20067;-90
2022/03/09 07:23:50;;;;;;;36.70;22.83;;;4.70;59.90;;;;;;5067104;28;20056;-92
2022/03/09 07:26:16;;;;;;;33.88;21.48;;;4.70;60.10;;;;;;5066239;28;20044;-93
2022/03/09 07:28:42;;;;;;;36.58;22.40;;;4.70;60.20;;;;;;5055609;28;20013;-90
2022/03/09 07:31:08;;;;;;;42.00;23.90;;;4.80;60.10;;;;;;5047975;28;20036;-90
2022/03/09 07:33:34;;;;;;;36.50;22.98;;;4.90;59.80;;;;;;5051653;28;20029;-89
2022/03/09 07:36:01;;;;;;;37.30;23.00;;;4.90;59.90;;;;;;5044324;28;20052;-90
2022/03/09 07:38:28;;;;;;;36.05;22.02;;;5.00;60.20;;;;;;5044793;28;20033;-91
2022/03/09 07:40:54;;;;;;;37.15;23.05;;;5.10;60.50;;;;;;5040892;28;20041;-88
2022/03/09 07:43:20;;;;;;;40.38;24.48;;;5.10;59.80;;;;;;5038513;28;20045;-88
2022/03/09 07:45:46;;;;;;;36.83;22.52;;;5.30;59.60;;;;;;5047799;28;20120;-87
2022/03/09 07:48:12;;;;;;;39.35;24.20;;;5.50;59.00;;;;;;5032576;28;20029;-87
2022/03/09 07:50:38;;;;;;;37.47;23.27;;;5.60;59.30;;;;;;5019996;28;20119;-88
2022/03/09 07:53:06;;;;;;;37.30;21.92;;;5.60;59.10;;;;;;5022139;28;20531;-88
2022/03/09 07:55:31;;;;;;;37.40;22.63;;;5.70;59.30;;;;;;5025962;28;20055;-87
2022/03/09 07:57:57;;;;;;;33.33;21.58;;;5.80;59.00;;;;;;5024922;28;20057;-88
2022/03/09 08:00:23;;;;;;;33.63;22.27;;;5.90;59.00;;;;;;5042072;28;20022;-88
2022/03/09 08:02:49;;;;;;;38.70;22.58;;;6.10;58.60;;;;;;5043152;28;20025;-87
2022/03/09 08:05:16;;;;;;;38.55;22.25;;;6.30;57.50;;;;;;5023904;28;20472;-88
2022/03/09 08:07:43;;;;;;;38.95;23.20;;;6.40;57.20;;;;;;5024300;28;20506;-86
2022/03/09 08:10:10;;;;;;;44.55;23.75;;;6.60;56.50;;;;;;5020663;28;20033;-87
2022/03/09 08:12:36;;;;;;;38.05;22.65;;;6.80;56.20;;;;;;5027993;28;20035;-89
2022/03/09 08:15:03;;;;;;;40.20;23.67;;;6.80;56.20;;;;;;5022486;28;20048;-88
2022/03/09 08:17:29;;;;;;;36.60;23.17;;;7.00;56.00;;;;;;5020681;28;20075;-87
2022/03/09 08:19:55;;;;;;;39.45;23.98;;;7.20;55.00;;;;;;5023565;28;20111;-89
2022/03/09 08:22:21;;;;;;;41.55;23.98;;;7.40;55.40;;;;;;5038239;28;20456;-90
2022/03/09 08:24:47;;;;;;;38.03;23.88;;;7.60;54.60;;;;;;5021351;28;20817;-93
2022/03/09 08:27:13;;;;;;;37.70;23.20;;;7.80;54.40;;;;;;5024808;28;20276;-85
2022/03/09 08:29:39;;;;;;;39.53;24.25;;;8.10;53.70;;;;;;5029505;28;20072;-91
2022/03/09 08:32:05;;;;;;;37.67;22.42;;;8.30;53.00;;;;;;5026456;28;20037;-88
2022/03/09 08:34:31;;;;;;;35.88;22.83;;;8.40;52.70;;;;;;5020482;28;20080;-90
2022/03/09 08:36:57;;;;;;;40.13;22.80;;;8.60;52.50;;;;;;5025881;28;20037;-89
2022/03/09 08:39:22;;;;;;;35.15;21.90;;;8.80;52.20;;;;;;5021685;28;20464;-90
2022/03/09 08:41:48;;;;;;;35.13;22.60;;;9.00;51.30;;;;;;5023226;28;20594;-88
2022/03/09 08:44:15;;;;;;;35.08;22.83;;;9.10;51.40;;;;;;5019238;28;20033;-87
2022/03/09 08:46:41;;;;;;;37.92;24.13;;;9.30;51.20;;;;;;5026236;28;20041;-87
2022/03/09 08:49:07;;;;;;;35.92;23.05;;;9.40;50.70;;;;;;5043600;28;20057;-88
2022/03/09 08:51:32;;;;;;;43.05;24.48;;;9.50;50.70;;;;;;5033812;28;20899;-92
2022/03/09 08:53:58;;;;;;;38.03;23.20;;;9.60;50.40;;;;;;5030003;28;20369;-87
2022/03/09 08:56:27;;;;;;;39.53;24.63;;;9.80;50.40;;;;;;5027771;28;20048;-88
2022/03/09 08:58:53;;;;;;;42.53;26.27;;;9.90;49.70;;;;;;5027152;28;20154;-87
2022/03/09 09:01:19;;;;;;;35.53;23.75;;;10.10;49.40;;;;;;5024080;28;20041;-88
2022/03/09 09:03:45;;;;;;;38.00;24.13;;;10.40;49.30;;;;;;5028980;28;20025;-87
2022/03/09 09:06:11;;;;;;;37.08;23.95;;;10.50;48.00;;;;;;5046147;28;20037;-88
2022/03/09 09:08:37;;;;;;;37.15;24.15;;;10.60;47.60;;;;;;5028622;28;20048;-84
2022/03/09 09:11:03;;;;;;;38.80;24.10;;;10.60;47.80;;;;;;5022580;28;20055;-84
2022/03/09 09:13:28;;;;;;;34.25;23.02;;;10.40;48.40;;;;;;5032173;28;20040;-87
2022/03/09 09:15:54;;;;;;;35.53;23.08;;;10.50;49.00;;;;;;5037578;28;20032;-86
2022/03/09 09:18:20;;;;;;;42.13;24.15;;;10.50;48.50;;;;;;5047469;28;20095;-86
2022/03/09 09:20:46;;;;;;;35.78;23.52;;;10.50;48.30;;;;;;5033312;28;20033;-87
2022/03/09 09:23:12;;;;;;;36.67;22.40;;;10.40;48.90;;;;;;5036570;28;20084;-86
2022/03/09 09:25:38;;;;;;;37.85;24.40;;;10.50;48.90;;;;;;5050837;28;20539;-86
2022/03/09 09:28:04;;;;;;;38.17;25.35;;;10.50;49.30;;;;;;5032870;28;20197;-86
2022/03/09 09:30:31;;;;;;;37.88;23.60;;;10.70;49.40;;;;;;5037560;28;20060;-86
2022/03/09 09:32:58;;;;;;;35.50;23.33;;;10.90;49.20;;;;;;5031666;28;20124;-89
2022/03/09 09:35:24;;;;;;;34.40;22.65;;;11.10;49.60;;;;;;5032181;28;20022;-86
2022/03/09 09:37:50;;;;;;;36.30;23.80;;;11.20;49.20;;;;;;5035197;28;20033;-90
2022/03/09 09:40:16;;;;;;;35.60;22.80;;;11.20;49.40;;;;;;5051977;28;20029;-87
2022/03/09 09:42:44;;;;;;;35.90;22.05;;;11.30;50.00;;;;;;5021694;28;20045;-86
2022/03/09 09:45:12;;;;;;;41.00;24.65;;;11.50;50.00;;;;;;5031888;28;20537;-90
2022/03/09 09:47:38;;;;;;;41.53;24.10;;;11.50;49.90;;;;;;5048699;28;20048;-87
2022/03/09 09:50:06;;;;;;;39.00;23.63;;;11.60;49.40;;;;;;5022957;28;20041;-89
2022/03/09 09:52:33;;;;;;;35.63;23.10;;;11.70;49.40;;;;;;5024167;28;20036;-88
2022/03/09 09:55:00;;;;;;;30.45;20.88;;;11.90;50.30;;;;;;5021127;28;20073;-86
2022/03/09 09:57:28;;;;;;;32.30;22.10;;;12.10;49.90;;;;;;5031992;28;20449;-86
2022/03/09 09:59:54;;;;;;;27.52;19.25;;;12.10;49.30;;;;;;5027186;28;20034;-86
2022/03/09 10:02:20;;;;;;;33.45;22.17;;;12.20;49.70;;;;;;5038984;28;20033;-89
2022/03/09 10:04:47;;;;;;;33.38;21.77;;;12.10;49.40;;;;;;5019355;28;20100;-86
2022/03/09 10:07:14;;;;;;;36.13;23.58;;;12.10;49.80;;;;;;5024973;28;20458;-87
2022/03/09 10:09:43;;;;;;;33.55;21.67;;;12.40;50.20;;;;;;5028941;28;20188;-86
2022/03/09 10:12:13;;;;;;;32.50;21.63;;;12.50;49.50;;;;;;5030704;28;20069;-90
2022/03/09 10:14:52;;;;;;;33.33;20.95;;;12.50;49.80;;;;;;5026628;28;20029;-86
2022/03/09 10:17:19;;;;;;;30.45;20.52;;;12.60;50.10;;;;;;5027550;28;20049;-91
2022/03/09 10:19:50;;;;;;;30.45;21.42;;;12.70;50.30;;;;;;5021862;28;20114;-87
2022/03/09 10:22:33;;;;;;;30.27;20.95;;;12.90;50.20;;;;;;5022764;28;20033;-88
2022/03/09 10:25:09;;;;;;;29.25;20.42;;;13.10;50.20;;;;;;5027955;28;20037;-86
2022/03/09 10:27:43;;;;;;;30.33;20.52;;;13.10;50.30;;;;;;5017899;28;20041;-89
2022/03/09 10:30:13;;;;;;;28.02;20.23;;;13.20;49.70;;;;;;5027876;28;20041;-84
2022/03/09 10:32:53;;;;;;;28.55;19.58;;;13.30;49.30;;;;;;5082394;22;20143;-87
2022/03/09 10:35:34;;;;;;;29.55;19.95;;;13.30;49.80;;;;;;5069581;28;20044;-86
2022/03/09 10:38:09;;;;;;;22.92;17.02;;;13.40;50.70;;;;;;5062348;28;20045;-86
2022/03/09 10:40:43;;;;;;;25.90;18.35;;;13.30;50.70;;;;;;5088103;28;20092;-85
2022/03/09 10:43:13;;;;;;;30.50;19.02;;;13.50;50.40;;;;;;5060621;28;20060;-85
2022/03/09 10:46:04;;;;;;;28.50;17.98;;;13.70;50.10;;;;;;5063367;28;20032;-86
2022/03/09 10:48:52;;;;;;;27.58;18.73;;;13.80;49.90;;;;;;5070714;28;20036;-85
2022/03/09 10:51:38;;;;;;;27.65;19.33;;;13.80;50.00;;;;;;5061742;28;20503;-86
2022/03/09 10:54:09;;;;;;;29.95;20.35;;;13.80;50.10;;;;;;5056067;28;20041;-89
2022/03/09 10:56:36;;;;;;;31.10;20.33;;;14.00;50.00;;;;;;5052647;28;20044;-87
2022/03/09 10:59:16;;;;;;;30.10;20.95;;;14.10;49.50;;;;;;5072542;28;20041;-85
2022/03/09 11:01:43;;;;;;;28.52;19.27;;;14.20;49.90;;;;;;5072786;28;20028;-85
2022/03/09 11:04:15;;;;;;;28.30;18.77;;;14.40;49.00;;;;;;5055008;28;20038;-85
2022/03/09 11:06:46;;;;;;;26.23;19.17;;;14.60;48.40;;;;;;5074195;28;20072;-85
2022/03/09 11:09:21;;;;;;;25.90;18.10;;;14.60;48.80;;;;;;5060828;28;20060;-86
2022/03/09 11:11:49;;;;;;;25.98;18.75;;;14.50;48.50;;;;;;5075688;28;20033;-86
2022/03/09 11:14:16;;;;;;;25.33;17.40;;;14.60;48.10;;;;;;5054883;28;20031;-86
2022/03/09 11:16:43;;;;;;;26.27;18.20;;;14.60;48.30;;;;;;5081924;28;20058;-87
2022/03/09 11:19:10;;;;;;;26.95;19.55;;;14.60;48.70;;;;;;5060071;28;20120;-88
2022/03/09 11:21:37;;;;;;;25.08;17.50;;;14.60;48.80;;;;;;5078569;28;20071;-89
2022/03/09 11:24:08;;;;;;;24.13;16.35;;;14.60;48.60;;;;;;5061476;28;20037;-86
2022/03/09 11:26:39;;;;;;;23.70;17.10;;;14.60;49.00;;;;;;5054767;28;20380;-84
2022/03/09 11:29:09;;;;;;;26.80;18.00;;;14.70;48.90;;;;;;5054715;28;20051;-88
2022/03/09 11:31:52;;;;;;;24.35;17.48;;;14.80;47.80;;;;;;5085216;28;20044;-87
2022/03/09 11:34:48;;;;;;;22.75;15.48;;;14.80;48.40;;;;;;5054291;28;20029;-86
2022/03/09 11:37:16;;;;;;;24.20;16.95;;;14.80;48.90;;;;;;5082517;28;20413;-86
2022/03/09 11:39:46;;;;;;;23.52;16.75;;;14.80;48.60;;;;;;5083639;28;20024;-85
2022/03/09 11:42:21;;;;;;;22.05;16.88;;;14.80;48.50;;;;;;5064245;28;20558;-85
2022/03/09 11:45:20;;;;;;;24.52;17.33;;;15.00;49.00;;;;;;5057631;28;20133;-85
2022/03/09 11:48:20;;;;;;;22.13;14.98;;;15.00;48.20;;;;;;5017755;28;20044;-85
2022/03/09 11:50:46;;;;;;;26.73;17.42;;;15.20;48.50;;;;;;4975897;28;20049;-85
2022/03/09 11:53:13;;;;;;;24.05;16.42;;;15.40;48.40;;;;;;5022907;28;20563;-86
2022/03/09 11:55:40;;;;;;;23.83;17.20;;;15.20;48.50;;;;;;5038844;28;20029;-87
2022/03/09 11:58:08;;;;;;;24.85;17.60;;;15.30;47.90;;;;;;5076175;28;20040;-85
2022/03/09 12:00:35;;;;;;;24.80;18.02;;;15.30;48.50;;;;;;5065129;28;20036;-85
2022/03/09 12:03:01;;;;;;;24.27;17.50;;;15.10;48.10;;;;;;5065577;28;20021;-84
2022/03/09 12:05:27;;;;;;;28.20;18.27;;;15.10;49.50;;;;;;5092669;28;20040;-84
2022/03/09 12:07:54;;;;;;;27.83;20.05;;;15.10;48.80;;;;;;5089440;28;20096;-84
2022/03/09 12:10:40;;;;;;;24.42;16.02;;;15.30;49.50;;;;;;5084743;28;20028;-86
2022/03/09 12:16:16;;;;;;;21.33;16.13;;;15.20;48.70;;;;;;5070760;28;20133;-84
2022/03/09 12:18:48;;;;;;;24.30;16.85;;;15.40;48.50;;;;;;5073071;28;20052;-85
2022/03/09 12:21:27;;;;;;;24.48;15.68;;;15.40;47.80;;;;;;5076621;28;20531;-85
2022/03/09 12:24:02;;;;;;;25.00;16.50;;;15.30;48.30;;;;;;5075420;28;20040;-84
2022/03/09 12:26:51;;;;;;;24.10;17.23;;;15.10;49.60;;;;;;5065666;28;20207;-84
2022/03/09 12:29:28;;;;;;;24.98;17.42;;;15.00;49.40;;;;;;5086133;28;20072;-84
2022/03/09 12:32:13;;;;;;;25.67;16.42;;;15.10;49.70;;;;;;5064868;28;20044;-85
2022/03/09 12:34:47;;;;;;;22.67;16.80;;;15.30;49.40;;;;;;5064835;28;20059;-84
2022/03/09 12:37:19;;;;;;;;;;;15.50;49.10;;;;;;5068123;28;20060;-85
2022/03/09 12:39:50;;;;;;;23.70;16.25;;;15.70;48.60;;;;;;5068486;28;19908;-84
2022/03/09 12:42:17;;;;;;;23.35;16.25;;;15.90;48.80;;;;;;5078139;28;20071;-84